Springfield, Ohio
Current Conditions -  °F | °C
As of 5:56 AM on Sunday 23 Nov 2014 (Local Time) from KSGH Reporting Station
Overcast Overcast  
Wind Chill: 44°   Ceiling: 7000
Heat Index: 48°   Visibility: 9mi
Dew Point: 39°   Wind: 8mph
Humidity: 71%   Direction: 170°S
Pressure: 30.01"   Gusts: NA
Location:  39.93°N, 83.81°W
Report Text: KSGH 231056Z AUTO 17007KT 9SM SCT031 OVC070 09/04 A3001 RMK AO2 T00880038 SLP164 $
Loading
Personal Weather Stations






























Interactive Weather Map New forecast layout! Learn more

10-Day Weather Forecast

Advertisements
Track Severe Weather on mobile